createdAt,value
2023-01-25T00:00:51.377Z,7.26
2023-01-25T00:03:17.997Z,6.70
2023-01-25T00:05:44.332Z,7.13
2023-01-25T00:08:12.267Z,7.38
2023-01-25T00:10:38.751Z,7.07
2023-01-25T00:13:05.127Z,7.36
2023-01-25T00:15:31.471Z,7.32
2023-01-25T00:17:57.788Z,7.11
2023-01-25T00:20:24.334Z,7.16
2023-01-25T00:22:52.132Z,7.35
2023-01-25T00:25:18.804Z,7.32
2023-01-25T00:27:45.460Z,7.40
2023-01-25T00:30:12.043Z,7.60
2023-01-25T00:32:47.181Z,7.25
2023-01-25T00:35:13.900Z,7.25
2023-01-25T00:37:42.870Z,7.19
2023-01-25T00:40:10.630Z,7.36
2023-01-25T00:42:37.334Z,6.15
2023-01-25T00:45:04.094Z,6.65
2023-01-25T00:47:30.529Z,6.82
2023-01-25T00:49:56.818Z,7.11
2023-01-25T00:52:23.178Z,7.16
2023-01-25T00:54:49.941Z,7.15
2023-01-25T00:57:16.369Z,7.16
2023-01-25T00:59:44.619Z,6.65
2023-01-25T01:02:12.107Z,6.87
2023-01-25T01:04:38.936Z,7.26
2023-01-25T01:07:05.321Z,7.06
2023-01-25T01:09:32.342Z,7.21
2023-01-25T01:11:59.054Z,7.24
2023-01-25T01:14:25.557Z,7.24
2023-01-25T01:16:52.636Z,7.40
2023-01-25T01:19:19.415Z,7.19
2023-01-25T01:21:45.847Z,6.02
2023-01-25T01:24:12.319Z,6.64
2023-01-25T01:26:38.911Z,7.00
2023-01-25T01:29:05.708Z,6.67
2023-01-25T01:31:32.291Z,6.73
2023-01-25T01:33:58.864Z,7.19
2023-01-25T01:36:26.723Z,7.11
2023-01-25T01:38:53.292Z,7.18
2023-01-25T01:41:19.912Z,7.26
2023-01-25T01:43:46.745Z,7.08
2023-01-25T01:46:45.593Z,7.09
2023-01-25T01:49:26.515Z,7.25
2023-01-25T01:51:56.820Z,6.47
2023-01-25T01:54:24.138Z,6.67
2023-01-25T01:57:10.865Z,6.84
2023-01-25T01:59:40.239Z,6.88
2023-01-25T02:02:06.850Z,7.22
2023-01-25T02:04:33.571Z,6.91
2023-01-25T02:07:03.407Z,6.38
2023-01-25T02:09:32.161Z,6.74
2023-01-25T02:11:59.846Z,6.74
2023-01-25T02:14:27.862Z,6.78
2023-01-25T02:16:54.219Z,7.18
2023-01-25T02:19:40.778Z,7.11
2023-01-25T02:22:10.335Z,6.32
2023-01-25T02:24:37.671Z,6.63
2023-01-25T02:27:04.337Z,6.10
2023-01-25T02:29:31.058Z,6.51
2023-01-25T02:32:03.620Z,6.68
2023-01-25T02:34:30.130Z,6.61
2023-01-25T02:36:56.851Z,6.54
2023-01-25T02:39:26.472Z,6.53
2023-01-25T02:41:53.151Z,5.89
2023-01-25T02:44:27.343Z,6.00
2023-01-25T02:46:54.018Z,6.28
2023-01-25T02:49:21.854Z,6.31
2023-01-25T02:51:49.995Z,6.21
2023-01-25T02:54:17.889Z,5.87
2023-01-25T02:56:44.435Z,5.96
2023-01-25T02:59:13.119Z,5.47
2023-01-25T03:01:40.810Z,5.48
2023-01-25T03:04:07.615Z,5.74
2023-01-25T03:06:35.068Z,5.72
2023-01-25T03:09:01.940Z,5.87
2023-01-25T03:11:28.406Z,6.07
2023-01-25T03:13:55.167Z,6.60
2023-01-25T03:16:21.939Z,6.68
2023-01-25T03:18:48.563Z,5.77
2023-01-25T03:21:16.580Z,6.12
2023-01-25T03:23:43.536Z,6.27
2023-01-25T03:26:14.361Z,6.41
2023-01-25T03:28:41.391Z,6.03
2023-01-25T03:31:08.890Z,5.98
2023-01-25T03:33:35.614Z,5.95
2023-01-25T03:36:02.440Z,5.01
2023-01-25T03:38:29.297Z,5.20
2023-01-25T03:40:55.965Z,6.00
2023-01-25T03:43:22.500Z,6.27
2023-01-25T03:45:53.511Z,5.93
2023-01-25T03:48:20.248Z,6.25
2023-01-25T03:50:50.819Z,5.94
2023-01-25T03:53:29.740Z,6.42
2023-01-25T03:55:57.718Z,6.19
2023-01-25T03:58:24.337Z,6.40
2023-01-25T04:00:51.020Z,6.06
2023-01-25T04:03:19.559Z,6.11
2023-01-25T04:05:46.580Z,6.05
2023-01-25T04:08:13.440Z,5.97
2023-01-25T04:10:40.114Z,5.84
2023-01-25T04:13:06.590Z,6.04
2023-01-25T04:15:33.008Z,6.30
2023-01-25T04:17:59.545Z,6.06
2023-01-25T04:20:25.997Z,6.32
2023-01-25T04:22:52.666Z,6.37
2023-01-25T04:25:20.366Z,6.34
2023-01-25T04:27:47.006Z,5.79
2023-01-25T04:30:13.609Z,6.27
2023-01-25T04:32:41.521Z,6.30
2023-01-25T04:35:08.719Z,5.49
2023-01-25T04:37:35.491Z,6.27
2023-01-25T04:40:02.302Z,6.53
2023-01-25T04:42:30.095Z,6.48
2023-01-25T04:44:56.552Z,6.58
2023-01-25T04:47:23.028Z,6.55
2023-01-25T04:49:49.580Z,6.33
2023-01-25T04:52:16.009Z,6.03
2023-01-25T04:54:42.463Z,6.10
2023-01-25T04:57:09.229Z,5.94
2023-01-25T04:59:35.996Z,6.41
2023-01-25T05:02:02.503Z,6.24
2023-01-25T05:04:29.002Z,6.50
2023-01-25T05:06:55.625Z,6.18
2023-01-25T05:09:22.432Z,6.54
2023-01-25T05:11:48.904Z,6.16
2023-01-25T05:14:15.459Z,6.19
2023-01-25T05:16:43.109Z,6.70
2023-01-25T05:19:10.569Z,6.20
2023-01-25T05:21:55.754Z,5.92
2023-01-25T05:24:22.425Z,5.78
2023-01-25T05:27:01.431Z,6.19
2023-01-25T05:29:28.589Z,5.57
2023-01-25T05:31:55.088Z,5.83
2023-01-25T05:34:21.820Z,6.02
2023-01-25T05:36:48.292Z,6.26
2023-01-25T05:39:15.079Z,6.07
2023-01-25T05:41:41.780Z,5.99
2023-01-25T05:44:08.125Z,5.93
2023-01-25T05:46:35.938Z,5.67
2023-01-25T05:49:02.568Z,6.02
2023-01-25T05:51:29.319Z,6.07
2023-01-25T05:53:56.642Z,6.08
2023-01-25T05:56:23.259Z,6.16
2023-01-25T05:58:56.304Z,6.15
2023-01-25T06:01:23.110Z,6.07
2023-01-25T06:03:49.892Z,6.06
2023-01-25T06:06:16.996Z,5.78
2023-01-25T06:08:43.633Z,5.55
2023-01-25T06:11:11.623Z,5.89
2023-01-25T06:13:39.038Z,5.86
2023-01-25T06:16:06.184Z,5.99
2023-01-25T06:18:34.028Z,5.93
2023-01-25T06:21:00.739Z,5.99
2023-01-25T06:23:27.702Z,5.90
2023-01-25T06:25:58.207Z,5.77
2023-01-25T06:28:24.758Z,4.97
2023-01-25T06:30:51.171Z,5.79
2023-01-25T06:33:17.706Z,6.54
2023-01-25T06:35:44.778Z,6.24
2023-01-25T06:38:11.233Z,6.55
2023-01-25T06:40:37.768Z,5.90
2023-01-25T06:43:07.812Z,5.95
2023-01-25T06:45:34.299Z,5.81
2023-01-25T06:48:01.017Z,6.05
2023-01-25T06:50:27.392Z,6.09
2023-01-25T06:52:54.611Z,6.05
2023-01-25T06:55:21.556Z,5.69
2023-01-25T06:57:48.160Z,5.59
2023-01-25T07:00:18.478Z,5.49
2023-01-25T07:02:45.190Z,5.53
2023-01-25T07:05:11.883Z,5.91
2023-01-25T07:07:38.833Z,5.29
2023-01-25T07:10:05.606Z,5.86
2023-01-25T07:12:32.271Z,6.12
2023-01-25T07:14:59.060Z,5.53
2023-01-25T07:17:25.636Z,6.06
2023-01-25T07:19:52.270Z,5.93
2023-01-25T07:22:18.764Z,5.24
2023-01-25T07:24:49.912Z,4.85
2023-01-25T07:27:17.056Z,5.12
2023-01-25T07:29:43.682Z,5.45
2023-01-25T07:32:12.142Z,5.67
2023-01-25T07:34:38.902Z,5.77
2023-01-25T07:37:05.699Z,5.89
2023-01-25T07:39:32.079Z,5.64
2023-01-25T07:41:58.485Z,5.92
2023-01-25T07:44:24.917Z,5.62
2023-01-25T07:46:53.207Z,5.58
2023-01-25T07:49:19.956Z,6.02
2023-01-25T07:51:46.330Z,6.02
2023-01-25T07:54:13.277Z,6.44
2023-01-25T07:56:40.958Z,6.27
2023-01-25T07:59:10.278Z,5.94
2023-01-25T08:01:37.356Z,4.76
2023-01-25T08:04:04.880Z,4.94
2023-01-25T08:06:35.626Z,5.37
2023-01-25T08:09:07.110Z,5.90
2023-01-25T08:11:34.811Z,5.75
2023-01-25T08:14:03.201Z,5.54
2023-01-25T08:16:30.773Z,5.28
2023-01-25T08:18:58.737Z,5.73
2023-01-25T08:21:29.353Z,5.43
2023-01-25T08:23:56.964Z,5.27
2023-01-25T08:26:24.139Z,5.42
2023-01-25T08:28:53.778Z,5.68
2023-01-25T08:31:23.221Z,5.64
2023-01-25T08:33:50.008Z,4.90
2023-01-25T08:36:18.340Z,5.02
2023-01-25T08:38:45.494Z,5.20
2023-01-25T08:41:14.236Z,5.67
2023-01-25T08:43:40.813Z,5.10
2023-01-25T08:46:07.983Z,5.39
2023-01-25T08:48:34.707Z,5.35
2023-01-25T08:51:01.644Z,5.94
2023-01-25T08:53:32.206Z,5.27
2023-01-25T08:56:09.348Z,4.36
2023-01-25T08:58:38.215Z,5.64
2023-01-25T09:01:08.916Z,5.94
2023-01-25T09:03:36.723Z,5.04
2023-01-25T09:06:03.433Z,4.18
2023-01-25T09:08:30.719Z,5.31
2023-01-25T09:11:01.080Z,5.66
2023-01-25T09:13:27.728Z,5.85
2023-01-25T09:15:59.292Z,6.00
2023-01-25T09:18:25.823Z,5.68
2023-01-25T09:20:52.833Z,5.69
2023-01-25T09:23:22.890Z,6.16
2023-01-25T09:25:55.854Z,6.15
2023-01-25T09:28:22.389Z,6.28
2023-01-25T09:31:14.574Z,5.52
2023-01-25T09:33:42.800Z,5.74
2023-01-25T09:36:09.960Z,5.14
2023-01-25T09:38:36.512Z,4.21
2023-01-25T09:41:21.729Z,4.94
2023-01-25T09:44:14.254Z,6.04
2023-01-25T09:47:01.788Z,6.04
2023-01-25T09:49:46.945Z,5.75
2023-01-25T09:52:22.248Z,6.32
2023-01-25T09:54:48.699Z,6.30
2023-01-25T09:57:22.520Z,6.00
2023-01-25T09:59:50.781Z,5.78
2023-01-25T10:02:25.699Z,4.54
2023-01-25T10:04:54.630Z,5.53
2023-01-25T10:07:44.295Z,5.80
2023-01-25T10:10:23.183Z,6.21
2023-01-25T10:12:49.603Z,6.37
2023-01-25T10:15:19.203Z,4.91
2023-01-25T10:17:46.477Z,5.31
2023-01-25T10:20:33.801Z,5.28
2023-01-25T10:23:15.646Z,6.21
2023-01-25T10:25:41.920Z,6.19
2023-01-25T10:28:14.460Z,5.62
2023-01-25T10:30:46.333Z,5.22
2023-01-25T10:33:14.917Z,5.57
2023-01-25T10:35:47.042Z,4.86
2023-01-25T10:38:34.383Z,5.69
2023-01-25T10:41:09.775Z,5.88
2023-01-25T10:43:36.358Z,5.94
2023-01-25T10:46:02.823Z,6.32
2023-01-25T10:48:33.013Z,6.53
2023-01-25T10:50:59.542Z,6.32
2023-01-25T10:53:26.509Z,6.73
2023-01-25T10:55:59.906Z,5.95
2023-01-25T10:58:30.524Z,6.01
2023-01-25T11:00:57.414Z,6.60
2023-01-25T11:03:23.986Z,4.90
2023-01-25T11:05:57.829Z,6.24
2023-01-25T11:08:30.225Z,5.71
2023-01-25T11:10:56.829Z,5.75
2023-01-25T11:13:29.927Z,5.34
2023-01-25T11:16:04.887Z,5.68
2023-01-25T11:18:33.990Z,5.99
2023-01-25T11:21:03.411Z,5.90
2023-01-25T11:23:32.147Z,6.20
2023-01-25T11:26:18.801Z,5.83
2023-01-25T11:28:46.308Z,4.59
2023-01-25T11:31:14.517Z,4.97
2023-01-25T11:33:42.160Z,4.85
2023-01-25T11:36:20.067Z,4.65
2023-01-25T11:39:00.305Z,5.48
2023-01-25T11:41:45.809Z,5.73
2023-01-25T11:44:32.598Z,6.35
2023-01-25T11:47:18.867Z,5.67
2023-01-25T11:49:58.517Z,5.41
2023-01-25T11:52:43.646Z,5.54
2023-01-25T11:55:23.451Z,5.59
2023-01-25T11:57:52.859Z,6.17
2023-01-25T12:00:19.374Z,5.91
2023-01-25T12:02:49.242Z,6.13
2023-01-25T12:05:21.928Z,5.71
2023-01-25T12:08:00.783Z,5.21
2023-01-25T12:10:40.764Z,5.90
2023-01-25T12:13:25.922Z,6.27
2023-01-25T12:16:15.361Z,5.94
2023-01-25T12:18:45.026Z,5.33
2023-01-25T12:21:31.542Z,5.57
2023-01-25T12:24:16.359Z,6.16
2023-01-25T12:26:43.053Z,5.29
2023-01-25T12:29:09.612Z,5.29
2023-01-25T12:31:41.689Z,5.62
2023-01-25T12:34:15.095Z,5.90
2023-01-25T12:36:45.998Z,6.66
2023-01-25T12:39:12.446Z,6.33
2023-01-25T12:41:38.976Z,6.59
2023-01-25T12:44:17.451Z,6.64
2023-01-25T12:46:43.772Z,6.49
2023-01-25T12:49:24.105Z,5.99
2023-01-25T12:51:51.879Z,6.32
2023-01-25T12:54:24.535Z,5.52
2023-01-25T12:57:09.797Z,6.04
2023-01-25T12:59:43.601Z,6.06
2023-01-25T13:02:36.710Z,5.80
2023-01-25T13:05:14.551Z,6.03
2023-01-25T13:07:45.076Z,5.88
2023-01-25T13:10:18.573Z,6.27
2023-01-25T13:12:52.461Z,6.61
2023-01-25T13:15:38.555Z,5.85
2023-01-25T13:18:23.712Z,6.46
2023-01-25T13:20:51.990Z,6.44
2023-01-25T13:23:31.642Z,6.03
2023-01-25T13:26:16.835Z,6.18
2023-01-25T13:28:45.260Z,6.47
2023-01-25T13:31:46.400Z,6.31
2023-01-25T13:34:42.279Z,6.02
2023-01-25T13:37:19.268Z,6.61
2023-01-25T13:39:45.861Z,6.78
2023-01-25T13:42:12.164Z,6.08
2023-01-25T13:44:42.820Z,6.34
2023-01-25T13:47:20.758Z,5.97
2023-01-25T13:50:00.452Z,5.59
2023-01-25T13:52:27.643Z,5.94
2023-01-25T13:54:55.579Z,6.17
2023-01-25T13:57:29.455Z,6.02
2023-01-25T14:00:10.709Z,6.58
2023-01-25T14:02:38.762Z,5.70
2023-01-25T14:05:07.859Z,6.54
2023-01-25T14:07:37.129Z,6.69
2023-01-25T14:10:15.988Z,6.22
2023-01-25T14:12:43.700Z,6.70
2023-01-25T14:15:11.545Z,6.31
2023-01-25T14:17:38.023Z,6.22
2023-01-25T14:20:17.310Z,5.93
2023-01-25T14:22:47.313Z,6.45
2023-01-25T14:25:15.329Z,6.55
2023-01-25T14:27:44.181Z,5.65
2023-01-25T14:30:21.705Z,6.18
2023-01-25T14:32:49.508Z,5.89
2023-01-25T14:35:42.164Z,5.95
2023-01-25T14:38:24.873Z,5.59
2023-01-25T14:40:53.453Z,5.80
2023-01-25T14:43:20.128Z,5.71
2023-01-25T14:45:46.595Z,6.33
2023-01-25T14:48:32.154Z,5.67
2023-01-25T14:51:03.525Z,6.24
2023-01-25T14:53:31.128Z,6.51
2023-01-25T14:55:57.781Z,6.22
2023-01-25T14:58:24.998Z,6.02
2023-01-25T15:00:54.568Z,6.49
2023-01-25T15:03:22.524Z,5.93
2023-01-25T15:05:49.132Z,6.10
2023-01-25T15:08:25.780Z,6.51
2023-01-25T15:10:52.615Z,6.86
2023-01-25T15:13:21.233Z,6.99
2023-01-25T15:15:52.632Z,6.36
2023-01-25T15:18:38.193Z,6.80
2023-01-25T15:21:04.624Z,6.39
2023-01-25T15:23:31.179Z,6.62
2023-01-25T15:25:59.155Z,6.05
2023-01-25T15:28:28.102Z,5.79
2023-01-25T15:30:58.277Z,5.11
2023-01-25T15:33:26.580Z,5.90
2023-01-25T15:35:53.615Z,5.76
2023-01-25T15:38:21.803Z,5.65
2023-01-25T15:40:48.713Z,6.44
2023-01-25T15:43:16.607Z,6.67
2023-01-25T15:45:45.568Z,6.99
2023-01-25T15:48:17.501Z,5.62
2023-01-25T15:50:44.457Z,6.16
2023-01-25T15:53:15.267Z,6.12
2023-01-25T15:55:42.764Z,6.57
2023-01-25T15:58:12.340Z,6.41
2023-01-25T16:00:39.017Z,6.24
2023-01-25T16:03:07.244Z,5.96
2023-01-25T16:05:33.780Z,5.66
2023-01-25T16:08:00.165Z,6.02
2023-01-25T16:10:26.810Z,6.20
2023-01-25T16:12:53.235Z,5.66
2023-01-25T16:15:19.671Z,6.33
2023-01-25T16:17:46.371Z,6.20
2023-01-25T16:20:18.257Z,5.48
2023-01-25T16:22:45.096Z,4.52
2023-01-25T16:25:11.778Z,5.73
2023-01-25T16:27:38.633Z,5.47
2023-01-25T16:30:06.238Z,4.75
2023-01-25T16:32:32.793Z,5.37
2023-01-25T16:35:00.754Z,5.29
2023-01-25T16:37:27.674Z,5.22
2023-01-25T16:39:54.180Z,5.13
2023-01-25T16:42:22.694Z,5.94
2023-01-25T16:44:50.515Z,6.59
2023-01-25T16:47:17.143Z,6.26
2023-01-25T16:49:43.695Z,5.95
2023-01-25T16:52:11.346Z,5.04
2023-01-25T16:54:38.603Z,6.08
2023-01-25T16:57:14.966Z,5.66
2023-01-25T16:59:46.287Z,5.26
2023-01-25T17:02:13.133Z,5.92
2023-01-25T17:04:39.762Z,4.95
2023-01-25T17:07:08.456Z,3.94
2023-01-25T17:09:35.491Z,4.61
2023-01-25T17:12:02.134Z,4.38
2023-01-25T17:14:28.822Z,5.32
2023-01-25T17:16:55.706Z,5.66
2023-01-25T17:19:23.550Z,5.47
2023-01-25T17:21:51.378Z,5.01
2023-01-25T17:24:19.933Z,5.18
2023-01-25T17:26:46.737Z,4.73
2023-01-25T17:29:13.964Z,5.15
2023-01-25T17:31:42.327Z,5.15
2023-01-25T17:34:11.608Z,5.75
2023-01-25T17:36:38.249Z,5.64
2023-01-25T17:39:06.207Z,5.59
2023-01-25T17:41:33.217Z,5.28
2023-01-25T17:43:59.723Z,5.23
2023-01-25T17:46:29.600Z,6.02
2023-01-25T17:48:57.177Z,5.64
2023-01-25T17:51:24.956Z,5.61
2023-01-25T17:53:52.319Z,6.07
2023-01-25T17:56:22.087Z,5.96
2023-01-25T17:58:48.515Z,6.02
2023-01-25T18:01:17.978Z,5.74
2023-01-25T18:03:45.224Z,5.48
2023-01-25T18:06:14.331Z,4.62
2023-01-25T18:08:44.902Z,5.41
2023-01-25T18:11:12.683Z,5.16
2023-01-25T18:13:42.701Z,5.27
2023-01-25T18:16:10.217Z,5.11
2023-01-25T18:18:37.247Z,4.93
2023-01-25T18:21:07.791Z,5.07
2023-01-25T18:23:34.525Z,5.20
2023-01-25T18:26:01.186Z,5.88
2023-01-25T18:28:28.378Z,5.64
2023-01-25T18:31:00.851Z,5.21
2023-01-25T18:33:27.714Z,5.68
2023-01-25T18:35:55.116Z,5.66
2023-01-25T18:38:21.684Z,5.92
2023-01-25T18:40:49.527Z,5.41
2023-01-25T18:43:17.069Z,5.77
2023-01-25T18:45:44.923Z,6.26
2023-01-25T18:48:14.617Z,6.11
2023-01-25T18:50:41.761Z,5.46
2023-01-25T18:53:11.221Z,5.29
2023-01-25T18:55:38.410Z,4.30
2023-01-25T18:58:05.694Z,5.13
2023-01-25T19:00:32.689Z,4.90
2023-01-25T19:02:59.354Z,4.37
2023-01-25T19:05:25.837Z,2.59
2023-01-25T19:07:52.585Z,3.72
2023-01-25T19:10:19.439Z,3.61
2023-01-25T19:12:46.179Z,4.46
2023-01-25T19:15:12.765Z,4.88
2023-01-25T19:17:39.145Z,4.90
2023-01-25T19:20:05.809Z,4.91
2023-01-25T19:22:32.487Z,5.54
2023-01-25T19:25:00.147Z,5.28
2023-01-25T19:27:28.695Z,4.87
2023-01-25T19:29:55.168Z,5.22
2023-01-25T19:32:21.841Z,5.54
2023-01-25T19:34:48.225Z,5.67
2023-01-25T19:37:14.715Z,5.66
2023-01-25T19:39:41.135Z,4.94
2023-01-25T19:42:07.980Z,5.66
2023-01-25T19:44:35.406Z,6.04
2023-01-25T19:47:03.175Z,5.90
2023-01-25T19:49:29.959Z,4.93
2023-01-25T19:51:56.645Z,5.15
2023-01-25T19:54:24.321Z,4.80
2023-01-25T19:56:51.402Z,3.88
2023-01-25T19:59:19.230Z,4.73
2023-01-25T20:01:46.991Z,4.41
2023-01-25T20:04:15.251Z,5.03
2023-01-25T20:06:42.154Z,5.11
2023-01-25T20:09:11.386Z,4.76
2023-01-25T20:11:38.429Z,5.19
2023-01-25T20:14:07.668Z,5.40
2023-01-25T20:16:35.488Z,4.82
2023-01-25T20:19:03.542Z,4.54
2023-01-25T20:21:31.416Z,3.86
2023-01-25T20:24:00.432Z,4.14
2023-01-25T20:26:28.766Z,4.91
2023-01-25T20:28:56.343Z,5.16
2023-01-25T20:31:23.131Z,4.98
2023-01-25T20:33:51.371Z,5.12
2023-01-25T20:36:18.232Z,4.53
2023-01-25T20:38:44.775Z,5.46
2023-01-25T20:41:15.773Z,5.42
2023-01-25T20:43:49.316Z,5.91
2023-01-25T20:46:16.424Z,6.02
2023-01-25T20:48:43.250Z,6.08
2023-01-25T20:51:10.552Z,6.00
2023-01-25T20:53:37.291Z,6.15
2023-01-25T20:56:04.015Z,6.09
2023-01-25T20:58:30.842Z,6.11
2023-01-25T21:00:57.730Z,5.90
2023-01-25T21:03:24.917Z,5.90
2023-01-25T21:05:52.580Z,6.08
2023-01-25T21:08:19.452Z,5.99
2023-01-25T21:10:50.036Z,6.04
2023-01-25T21:13:16.744Z,6.23
2023-01-25T21:15:43.186Z,5.55
2023-01-25T21:18:09.727Z,5.84
2023-01-25T21:20:36.509Z,6.30
2023-01-25T21:23:03.741Z,6.13
2023-01-25T21:25:30.512Z,6.41
2023-01-25T21:27:57.044Z,6.34
2023-01-25T21:30:24.043Z,5.91
2023-01-25T21:32:51.667Z,6.27
2023-01-25T21:35:18.460Z,6.11
2023-01-25T21:37:46.379Z,6.31
2023-01-25T21:40:13.248Z,6.41
2023-01-25T21:42:39.617Z,6.18
2023-01-25T21:45:24.874Z,6.42
2023-01-25T21:47:51.241Z,6.42
2023-01-25T21:50:36.414Z,6.34
2023-01-25T21:53:02.786Z,6.33
2023-01-25T21:55:29.336Z,6.48
2023-01-25T21:57:55.666Z,6.14
2023-01-25T22:00:22.077Z,6.29
2023-01-25T22:02:50.575Z,6.30
2023-01-25T22:05:17.033Z,6.38
2023-01-25T22:07:43.466Z,6.21
2023-01-25T22:10:10.568Z,6.41
2023-01-25T22:12:37.122Z,6.44
2023-01-25T22:15:03.582Z,5.79
2023-01-25T22:17:29.902Z,5.99
2023-01-25T22:19:56.232Z,6.15
2023-01-25T22:22:22.585Z,6.01
2023-01-25T22:24:48.892Z,5.90
2023-01-25T22:27:18.355Z,5.90
2023-01-25T22:29:44.712Z,6.24
2023-01-25T22:32:11.032Z,6.18
2023-01-25T22:34:38.051Z,5.74
2023-01-25T22:37:04.394Z,5.62
2023-01-25T22:39:30.812Z,5.34
2023-01-25T22:41:57.164Z,5.56
2023-01-25T22:44:23.530Z,5.94
2023-01-25T22:46:50.686Z,6.22
2023-01-25T22:49:17.275Z,5.56
2023-01-25T22:51:43.660Z,4.72
2023-01-25T22:54:10.108Z,4.98
2023-01-25T22:56:37.447Z,5.38
2023-01-25T22:59:04.330Z,5.80
2023-01-25T23:01:34.568Z,5.22
2023-01-25T23:04:01.405Z,5.05
2023-01-25T23:06:29.124Z,5.55
2023-01-25T23:09:03.299Z,5.62
2023-01-25T23:11:32.507Z,5.71
2023-01-25T23:14:18.243Z,5.59
2023-01-25T23:16:44.633Z,5.77
2023-01-25T23:19:11.466Z,5.81
2023-01-25T23:21:37.879Z,6.17
2023-01-25T23:24:04.559Z,6.14
2023-01-25T23:26:37.492Z,6.30
2023-01-25T23:29:05.688Z,6.27
2023-01-25T23:31:32.908Z,6.13
2023-01-25T23:34:02.780Z,6.11
2023-01-25T23:36:31.250Z,6.28
2023-01-25T23:38:59.321Z,6.33
2023-01-25T23:41:27.266Z,6.00
2023-01-25T23:43:55.285Z,5.83
2023-01-25T23:46:22.814Z,5.68
2023-01-25T23:48:49.732Z,5.90
2023-01-25T23:51:17.583Z,6.08
2023-01-25T23:53:44.347Z,5.84
2023-01-25T23:56:13.201Z,5.76
2023-01-25T23:58:39.896Z,6.15
